Time;durP1;ratioP1;P1;durP2;ratioP2;P2;SDS_P1;SDS_P2;PMS_P1;PMS_P2;Temp;Humidity;BMP_temperature;BMP_pressure;BME280_temperature;BME280_humidity;BME280_pressure;Samples;Min_cycle;Max_cycle;Signal;HPM_P1;HPM_P2
2022/02/06 00:00:03;;;;;;;10.10;1.17;;;;;;;;;;4962626;28;20113;-51
2022/02/06 00:02:33;;;;;;;5.15;1.58;;;;;;;;;;4961058;28;20038;-48
2022/02/06 00:04:59;;;;;;;10.25;0.93;;;;;;;;;;4962751;28;20108;-50
2022/02/06 00:07:24;;;;;;;10.55;1.38;;;;;;;;;;4992912;28;20241;-53
2022/02/06 00:09:50;;;;;;;9.88;0.70;;;;;;;;;;4953471;28;20042;-51
2022/02/06 00:12:16;;;;;;;9.27;1.27;;;;;;;;;;4965164;28;20031;-50
2022/02/06 00:14:41;;;;;;;5.93;0.73;;;;;;;;;;4963609;28;20057;-50
2022/02/06 00:17:08;;;;;;;5.72;1.05;;;;;;;;;;4991227;28;20402;-52
2022/02/06 00:19:34;;;;;;;9.75;1.30;;;;;;;;;;4962961;28;20108;-52
2022/02/06 00:22:03;;;;;;;10.73;0.70;;;;;;;;;;4960737;28;20058;-52
2022/02/06 00:24:44;;;;;;;5.50;0.70;;;;;;;;;;4962946;28;20043;-53
2022/02/06 00:27:23;;;;;;;7.05;0.57;;;;;;;;;;4965219;28;20070;-52
2022/02/06 00:30:02;;;;;;;5.38;0.70;;;;;;;;;;4961788;28;20458;-52
2022/02/06 00:32:43;;;;;;;9.63;0.80;;;;;;;;;;4960455;28;20034;-52
2022/02/06 00:43:25;;;;;;;13.70;1.27;;;;;;;;;;4954791;28;20450;-53
2022/02/06 00:45:50;;;;;;;10.25;1.73;;;;;;;;;;4965707;28;20117;-52
2022/02/06 00:48:23;;;;;;;10.07;0.95;;;;;;;;;;4959419;28;20336;-51
2022/02/06 00:50:58;;;;;;;8.73;0.90;;;;;;;;;;4959655;28;20064;-50
2022/02/06 00:53:24;;;;;;;8.73;0.57;;;;;;;;;;4988076;28;20019;-50
2022/02/06 00:55:49;;;;;;;10.10;1.08;;;;;;;;;;4960253;28;20030;-51
2022/02/06 00:58:15;;;;;;;15.05;1.05;;;;;;;;;;4963558;28;20134;-53
2022/02/06 01:00:40;;;;;;;7.97;0.65;;;;;;;;;;4955826;28;20055;-50
2022/02/06 01:03:06;;;;;;;12.40;1.42;;;;;;;;;;4959424;28;20130;-54
2022/02/06 01:05:32;;;;;;;4.53;0.50;;;;;;;;;;4956402;28;20362;-54
2022/02/06 01:07:58;;;;;;;7.82;0.55;;;;;;;;;;4962990;28;20030;-54
2022/02/06 01:10:24;;;;;;;5.05;0.77;;;;;;;;;;4958754;28;20039;-53
2022/02/06 01:12:58;;;;;;;5.88;0.38;;;;;;;;;;4958737;28;20069;-53
2022/02/06 01:15:28;;;;;;;11.52;0.95;;;;;;;;;;4959310;28;20078;-52
2022/02/06 01:18:02;;;;;;;6.68;0.82;;;;;;;;;;4958011;28;20047;-51
2022/02/06 01:20:36;;;;;;;13.52;1.23;;;;;;;;;;4958439;28;20046;-52
2022/02/06 01:23:10;;;;;;;5.18;1.65;;;;;;;;;;4959205;28;20070;-52
2022/02/06 01:26:25;;;;;;;9.05;0.90;;;;;;;;;;4962537;28;20398;-54
2022/02/06 01:31:16;;;;;;;12.73;1.35;;;;;;;;;;4961407;28;20042;-53
2022/02/06 01:33:48;;;;;;;2.97;0.70;;;;;;;;;;4957337;28;20034;-52
2022/02/06 01:36:26;;;;;;;4.20;0.63;;;;;;;;;;4956222;28;20049;-53
2022/02/06 01:41:21;;;;;;;0.63;0.20;;;;;;;;;;4958758;28;20051;-51
2022/02/06 01:43:56;;;;;;;1.77;0.20;;;;;;;;;;4959473;28;20038;-52
2022/02/06 02:03:04;;;;;;;3.03;0.35;;;;;;;;;;4983872;28;20042;-54
2022/02/06 02:18:34;;;;;;;5.88;0.45;;;;;;;;;;4960023;28;20150;-53
2022/02/06 02:24:14;;;;;;;5.65;0.38;;;;;;;;;;4954800;28;20071;-53
2022/02/06 02:29:53;;;;;;;8.77;0.28;;;;;;;;;;4961331;28;20059;-53
2022/02/06 02:43:30;;;;;;;2.03;0.20;;;;;;;;;;4982582;28;20098;-54
2022/02/06 02:46:04;;;;;;;0.90;0.10;;;;;;;;;;4960485;28;20077;-52
2022/02/06 02:48:30;;;;;;;3.47;0.15;;;;;;;;;;4960562;28;20157;-54
2022/02/06 02:51:01;;;;;;;0.70;0.10;;;;;;;;;;4961054;28;20496;-55
2022/02/06 02:53:53;;;;;;;8.77;0.63;;;;;;;;;;4965341;28;20036;-55
2022/02/06 02:56:43;;;;;;;3.55;0.30;;;;;;;;;;4967214;28;20344;-54
2022/02/06 02:59:13;;;;;;;0.43;0.00;;;;;;;;;;4962018;28;20141;-53
2022/02/06 03:04:10;;;;;;;3.55;0.30;;;;;;;;;;4964460;28;20125;-53
2022/02/06 03:06:36;;;;;;;4.20;0.40;;;;;;;;;;4969638;28;20083;-53
2022/02/06 03:09:02;;;;;;;0.90;0.20;;;;;;;;;;4962535;28;20046;-53
2022/02/06 03:11:28;;;;;;;3.35;0.47;;;;;;;;;;4964004;28;20035;-51
2022/02/06 03:14:07;;;;;;;4.45;0.68;;;;;;;;;;4964929;28;20058;-50
2022/02/06 03:16:37;;;;;;;6.38;0.52;;;;;;;;;;4989539;28;20049;-51
2022/02/06 03:21:33;;;;;;;7.10;0.60;;;;;;;;;;4966665;28;20034;-52
2022/02/06 03:26:43;;;;;;;7.57;0.80;;;;;;;;;;4966676;28;20046;-54
2022/02/06 03:29:08;;;;;;;5.78;0.88;;;;;;;;;;4960740;28;20081;-53
2022/02/06 03:31:36;;;;;;;3.08;0.40;;;;;;;;;;4966011;28;20462;-51
2022/02/06 03:34:02;;;;;;;6.25;0.50;;;;;;;;;;4962193;28;20560;-53
2022/02/06 03:36:27;;;;;;;15.88;0.68;;;;;;;;;;4963992;28;20035;-52
2022/02/06 03:38:53;;;;;;;4.47;0.60;;;;;;;;;;4961982;28;20498;-53
2022/02/06 03:41:24;;;;;;;3.28;0.28;;;;;;;;;;4965344;28;20246;-52
2022/02/06 03:44:00;;;;;;;5.22;0.47;;;;;;;;;;4962209;28;20063;-54
2022/02/06 03:46:33;;;;;;;6.57;0.80;;;;;;;;;;4961869;28;20027;-54
2022/02/06 03:49:44;;;;;;;6.63;0.47;;;;;;;;;;4962580;28;20495;-55
2022/02/06 03:51:50;;;;;;;5.68;0.35;;;;;;;;;;4966863;28;20544;-52
2022/02/06 03:54:17;;;;;;;3.85;0.57;;;;;;;;;;4963523;28;20039;-54
2022/02/06 03:56:44;;;;;;;6.35;0.55;;;;;;;;;;4964443;28;20050;-54
2022/02/06 03:59:10;;;;;;;3.03;0.55;;;;;;;;;;4961749;28;20035;-52
2022/02/06 04:01:35;;;;;;;7.55;0.52;;;;;;;;;;4958797;28;20407;-54
2022/02/06 04:04:01;;;;;;;5.18;0.30;;;;;;;;;;4992954;28;20096;-54
2022/02/06 04:06:28;;;;;;;9.48;0.70;;;;;;;;;;4962020;28;20123;-53
2022/02/06 04:08:56;;;;;;;8.98;0.75;;;;;;;;;;4965544;28;20108;-55
2022/02/06 04:11:32;;;;;;;7.22;0.75;;;;;;;;;;4957232;28;20046;-54
2022/02/06 04:14:19;;;;;;;2.05;0.50;;;;;;;;;;4967228;28;20050;-55
2022/02/06 04:16:51;;;;;;;5.32;0.50;;;;;;;;;;4965495;28;20058;-56
2022/02/06 04:19:22;;;;;;;4.80;0.55;;;;;;;;;;4962480;28;20449;-56
2022/02/06 04:21:48;;;;;;;14.35;0.73;;;;;;;;;;4993664;28;20353;-55
2022/02/06 04:24:13;;;;;;;8.20;0.77;;;;;;;;;;4963155;28;20049;-54
2022/02/06 04:26:40;;;;;;;4.28;0.52;;;;;;;;;;4962989;28;20038;-54
2022/02/06 04:29:06;;;;;;;10.02;1.08;;;;;;;;;;4962630;28;20030;-54
2022/02/06 04:31:32;;;;;;;3.47;0.40;;;;;;;;;;4964060;28;20779;-54
2022/02/06 04:33:57;;;;;;;6.20;0.73;;;;;;;;;;4965723;28;20077;-55
2022/02/06 04:36:31;;;;;;;12.65;0.57;;;;;;;;;;4960878;28;20030;-55
2022/02/06 04:39:10;;;;;;;15.38;2.55;;;;;;;;;;4960468;28;20050;-52
2022/02/06 04:41:51;;;;;;;6.30;1.13;;;;;;;;;;4962578;28;20373;-54
2022/02/06 04:53:09;;;;;;;9.98;0.85;;;;;;;;;;4963567;28;20031;-53
2022/02/06 05:14:23;;;;;;;9.93;0.95;;;;;;;;;;4958022;28;20045;-53
2022/02/06 05:20:21;;;;;;;3.63;0.88;;;;;;;;;;4961054;28;20041;-54
2022/02/06 05:30:18;;;;;;;8.23;1.40;;;;;;;;;;4965617;28;20062;-54
2022/02/06 05:33:16;;;;;;;4.93;0.20;;;;;;;;;;4959518;28;20038;-55
2022/02/06 05:35:38;;;;;;;1.75;0.30;;;;;;;;;;4967789;28;20049;-54
2022/02/06 05:38:03;;;;;;;9.20;0.80;;;;;;;;;;4958927;28;20039;-57
2022/02/06 05:40:29;;;;;;;11.93;0.82;;;;;;;;;;4966017;28;20046;-53
2022/02/06 05:42:54;;;;;;;7.90;1.02;;;;;;;;;;4964510;28;20756;-55
2022/02/06 05:45:20;;;;;;;15.15;1.15;;;;;;;;;;4958724;28;20462;-53
2022/02/06 05:47:46;;;;;;;9.98;1.00;;;;;;;;;;4960406;28;20027;-53
2022/02/06 05:50:16;;;;;;;10.85;0.88;;;;;;;;;;4960785;28;20077;-53
2022/02/06 05:52:42;;;;;;;8.55;0.70;;;;;;;;;;4963810;28;20027;-52
2022/02/06 05:55:09;;;;;;;7.15;0.77;;;;;;;;;;4962099;28;20119;-52
2022/02/06 05:57:35;;;;;;;8.27;1.45;;;;;;;;;;4960470;28;20529;-53
2022/02/06 06:00:00;;;;;;;13.02;2.15;;;;;;;;;;4962604;28;20043;-54
2022/02/06 06:02:26;;;;;;;8.95;0.80;;;;;;;;;;4962487;28;20038;-54
2022/02/06 06:04:54;;;;;;;30.55;1.35;;;;;;;;;;4962151;28;20409;-54
2022/02/06 06:07:19;;;;;;;17.95;1.27;;;;;;;;;;4959416;28;20030;-49
2022/02/06 06:09:45;;;;;;;25.55;1.10;;;;;;;;;;4958325;28;20049;-52
2022/02/06 06:12:10;;;;;;;13.05;1.08;;;;;;;;;;4962820;28;20094;-55
2022/02/06 06:14:38;;;;;;;11.75;1.58;;;;;;;;;;4960078;28;20049;-54
2022/02/06 06:17:04;;;;;;;6.45;0.52;;;;;;;;;;4962496;28;20057;-49
2022/02/06 06:19:29;;;;;;;10.65;0.60;;;;;;;;;;4958430;28;20497;-52
2022/02/06 06:21:57;;;;;;;15.88;1.17;;;;;;;;;;4964310;28;20034;-54
2022/02/06 06:24:24;;;;;;;9.73;1.35;;;;;;;;;;4959459;28;20116;-53
2022/02/06 06:26:51;;;;;;;10.52;1.67;;;;;;;;;;4965152;28;20550;-54
2022/02/06 06:29:16;;;;;;;7.07;1.00;;;;;;;;;;4966956;28;20270;-52
2022/02/06 06:31:42;;;;;;;7.35;1.02;;;;;;;;;;4963770;28;20340;-53
2022/02/06 06:34:07;;;;;;;10.90;0.82;;;;;;;;;;4963086;28;20121;-50
2022/02/06 06:36:35;;;;;;;11.52;1.75;;;;;;;;;;4966060;28;20034;-53
2022/02/06 06:39:03;;;;;;;11.18;1.55;;;;;;;;;;4964306;28;20437;-53
2022/02/06 06:41:28;;;;;;;13.30;1.83;;;;;;;;;;4963732;28;20402;-52
2022/02/06 06:43:54;;;;;;;10.82;0.75;;;;;;;;;;4966745;28;20030;-53
2022/02/06 06:46:19;;;;;;;17.13;1.67;;;;;;;;;;4964815;28;20035;-54
2022/02/06 06:48:45;;;;;;;5.13;0.60;;;;;;;;;;4994976;28;20038;-53
2022/02/06 06:51:10;;;;;;;10.75;1.10;;;;;;;;;;4990750;28;20554;-54
2022/02/06 06:53:40;;;;;;;11.90;1.20;;;;;;;;;;4965064;28;20018;-52
2022/02/06 06:56:13;;;;;;;12.27;0.75;;;;;;;;;;4964821;28;20029;-52
2022/02/06 06:58:46;;;;;;;16.27;1.33;;;;;;;;;;4960030;28;20039;-54
2022/02/06 07:03:49;;;;;;;10.88;0.98;;;;;;;;;;4960881;28;20577;-50
2022/02/06 07:06:14;;;;;;;12.77;1.27;;;;;;;;;;4965120;28;20042;-49
2022/02/06 07:08:40;;;;;;;19.88;1.02;;;;;;;;;;4964981;28;20031;-54
2022/02/06 07:11:05;;;;;;;9.38;0.80;;;;;;;;;;4960649;28;20445;-50
2022/02/06 07:13:31;;;;;;;18.15;1.88;;;;;;;;;;4961206;28;20018;-52
2022/02/06 07:15:56;;;;;;;18.13;1.35;;;;;;;;;;4962664;28;20027;-52
2022/02/06 07:18:22;;;;;;;24.52;1.45;;;;;;;;;;4994719;28;20062;-53
2022/02/06 07:20:49;;;;;;;17.67;1.45;;;;;;;;;;4962751;28;20418;-49
2022/02/06 07:23:14;;;;;;;13.30;1.98;;;;;;;;;;4964042;28;20521;-48
2022/02/06 07:25:43;;;;;;;18.10;1.10;;;;;;;;;;4967137;28;20034;-52
2022/02/06 07:28:17;;;;;;;8.43;1.42;;;;;;;;;;4960395;28;20542;-50
2022/02/06 07:30:44;;;;;;;18.70;1.85;;;;;;;;;;4968861;28;20031;-53
2022/02/06 07:33:12;;;;;;;10.48;0.80;;;;;;;;;;4963463;28;20058;-53
2022/02/06 07:35:38;;;;;;;8.52;0.90;;;;;;;;;;4965736;28;20128;-52
2022/02/06 07:38:03;;;;;;;9.45;0.95;;;;;;;;;;4964383;28;20553;-48
2022/02/06 07:40:29;;;;;;;12.48;1.85;;;;;;;;;;4963011;28;20070;-54
2022/02/06 07:42:55;;;;;;;12.45;0.68;;;;;;;;;;4958130;28;20039;-51
2022/02/06 07:45:20;;;;;;;6.10;0.80;;;;;;;;;;4966865;28;20031;-52
2022/02/06 07:47:47;;;;;;;9.60;0.60;;;;;;;;;;4961367;28;20042;-48
2022/02/06 07:50:15;;;;;;;11.15;0.63;;;;;;;;;;4964135;28;20042;-54
2022/02/06 07:52:41;;;;;;;10.38;0.70;;;;;;;;;;4963217;28;20110;-53
2022/02/06 07:55:07;;;;;;;4.38;0.50;;;;;;;;;;4966220;28;20178;-50
2022/02/06 07:57:34;;;;;;;8.50;0.88;;;;;;;;;;4964591;28;20100;-52
2022/02/06 08:00:02;;;;;;;21.33;2.08;;;;;;;;;;4964120;28;20723;-49
2022/02/06 08:02:28;;;;;;;9.95;1.13;;;;;;;;;;4962721;28;20089;-54
2022/02/06 08:04:53;;;;;;;16.35;1.00;;;;;;;;;;4959402;28;20034;-53
2022/02/06 08:07:19;;;;;;;7.70;0.65;;;;;;;;;;4964483;28;20588;-53
2022/02/06 08:09:58;;;;;;;8.00;1.77;;;;;;;;;;4962884;28;20049;-47
2022/02/06 08:12:28;;;;;;;19.00;1.55;;;;;;;;;;4958071;28;20058;-53
2022/02/06 08:15:00;;;;;;;6.68;0.70;;;;;;;;;;4958162;28;20039;-53
2022/02/06 08:17:32;;;;;;;17.70;1.63;;;;;;;;;;4945493;28;20043;-52
2022/02/06 08:20:00;;;;;;;5.75;0.90;;;;;;;;;;4962052;28;20461;-52
2022/02/06 08:22:26;;;;;;;10.05;0.88;;;;;;;;;;4960007;28;20035;-53
2022/02/06 08:24:52;;;;;;;7.80;1.00;;;;;;;;;;4959345;28;20212;-52
2022/02/06 08:27:20;;;;;;;10.95;0.90;;;;;;;;;;4955437;28;20054;-54
2022/02/06 08:29:47;;;;;;;8.15;0.77;;;;;;;;;;4960244;28;20046;-50
2022/02/06 08:32:14;;;;;;;10.52;0.85;;;;;;;;;;4960746;28;20023;-50
2022/02/06 08:34:41;;;;;;;10.98;1.63;;;;;;;;;;4961460;28;20037;-51
2022/02/06 08:37:08;;;;;;;12.93;0.77;;;;;;;;;;4957900;28;20058;-53
2022/02/06 08:39:35;;;;;;;12.57;1.50;;;;;;;;;;4959284;28;20474;-50
2022/02/06 08:42:02;;;;;;;18.15;1.00;;;;;;;;;;4960342;28;20041;-52
2022/02/06 08:44:28;;;;;;;5.93;0.80;;;;;;;;;;4959947;28;20039;-50
2022/02/06 08:46:55;;;;;;;13.18;0.95;;;;;;;;;;4956530;28;20055;-50
2022/02/06 08:49:21;;;;;;;15.40;1.55;;;;;;;;;;4957548;28;20025;-53
2022/02/06 08:51:47;;;;;;;17.35;2.05;;;;;;;;;;4962340;28;20502;-52
2022/02/06 08:54:12;;;;;;;9.85;0.95;;;;;;;;;;4962854;28;20041;-52
2022/02/06 08:56:39;;;;;;;12.70;1.67;;;;;;;;;;4966044;28;20055;-52
2022/02/06 08:59:10;;;;;;;16.52;1.67;;;;;;;;;;4957687;28;20130;-53
2022/02/06 09:01:36;;;;;;;20.45;1.20;;;;;;;;;;4963310;28;20181;-51
2022/02/06 09:04:02;;;;;;;12.27;2.03;;;;;;;;;;4962173;28;20070;-52
2022/02/06 09:06:28;;;;;;;14.18;1.65;;;;;;;;;;4964353;28;20497;-53
2022/02/06 09:08:56;;;;;;;10.68;1.23;;;;;;;;;;4960071;28;20034;-52
2022/02/06 09:11:24;;;;;;;15.75;1.67;;;;;;;;;;4960694;28;20034;-51
2022/02/06 09:13:50;;;;;;;7.68;1.02;;;;;;;;;;4964529;28;20027;-52
2022/02/06 09:16:15;;;;;;;9.80;1.08;;;;;;;;;;4966550;28;20041;-50
2022/02/06 09:18:41;;;;;;;5.85;0.88;;;;;;;;;;4962808;28;20026;-48
2022/02/06 09:21:06;;;;;;;20.92;2.83;;;;;;;;;;4965146;28;20305;-47
2022/02/06 09:23:32;;;;;;;15.38;1.65;;;;;;;;;;4992740;28;20110;-50
2022/02/06 09:25:57;;;;;;;23.65;1.48;;;;;;;;;;4963559;28;20086;-50
2022/02/06 09:28:23;;;;;;;17.23;2.60;;;;;;;;;;4962958;28;20034;-49
2022/02/06 09:30:49;;;;;;;6.07;0.65;;;;;;;;;;4961180;28;20360;-52
2022/02/06 09:35:40;;;;;;;21.13;1.58;;;;;;;;;;4963054;28;20035;-50
2022/02/06 09:38:06;;;;;;;9.23;0.63;;;;;;;;;;4960257;28;20043;-50
2022/02/06 09:40:37;;;;;;;15.75;1.38;;;;;;;;;;4967037;28;20049;-50
2022/02/06 09:43:04;;;;;;;12.52;1.00;;;;;;;;;;4958476;28;20109;-52
2022/02/06 09:45:31;;;;;;;24.40;1.90;;;;;;;;;;4965773;28;20865;-48
2022/02/06 09:47:57;;;;;;;18.73;1.95;;;;;;;;;;4959400;28;20506;-52
2022/02/06 09:50:23;;;;;;;18.38;1.83;;;;;;;;;;4961592;28;20043;-53
2022/02/06 09:52:50;;;;;;;10.60;1.15;;;;;;;;;;4964906;28;20026;-52
2022/02/06 09:55:17;;;;;;;16.00;1.38;;;;;;;;;;4963860;28;20521;-50
2022/02/06 09:57:55;;;;;;;9.43;1.30;;;;;;;;;;4955314;28;20039;-53
2022/02/06 10:00:24;;;;;;;9.60;0.95;;;;;;;;;;4962468;28;20454;-52
2022/02/06 10:02:52;;;;;;;26.42;3.58;;;;;;;;;;4968740;28;20407;-51
2022/02/06 10:05:19;;;;;;;25.08;3.38;;;;;;;;;;4969760;28;20235;-52
2022/02/06 10:07:51;;;;;;;13.45;2.22;;;;;;;;;;4967476;28;20038;-53
2022/02/06 10:10:17;;;;;;;14.68;1.67;;;;;;;;;;4965385;28;20506;-51
2022/02/06 10:12:45;;;;;;;18.92;2.15;;;;;;;;;;4961961;28;20061;-52
2022/02/06 10:15:14;;;;;;;16.92;2.63;;;;;;;;;;4968146;28;20026;-50
2022/02/06 10:17:39;;;;;;;21.75;2.40;;;;;;;;;;4964841;28;20082;-51
2022/02/06 10:20:17;;;;;;;22.17;1.98;;;;;;;;;;4962579;28;20118;-48
2022/02/06 10:23:08;;;;;;;14.43;1.88;;;;;;;;;;4965151;28;20034;-47
2022/02/06 10:25:31;;;;;;;14.55;1.45;;;;;;;;;;4966174;28;20105;-49
2022/02/06 10:28:02;;;;;;;22.60;2.00;;;;;;;;;;4968094;28;20429;-51
2022/02/06 10:30:39;;;;;;;10.90;2.13;;;;;;;;;;4966798;28;20522;-52
2022/02/06 10:33:10;;;;;;;23.55;3.03;;;;;;;;;;4963743;28;20421;-51
2022/02/06 10:35:37;;;;;;;17.47;1.73;;;;;;;;;;4965987;28;20027;-48
2022/02/06 10:38:29;;;;;;;16.75;2.42;;;;;;;;;;4959118;28;20175;-50
2022/02/06 10:41:17;;;;;;;11.32;1.40;;;;;;;;;;4967374;28;20441;-51
2022/02/06 10:44:06;;;;;;;7.28;1.23;;;;;;;;;;4961923;28;20063;-51
2022/02/06 10:46:54;;;;;;;12.35;1.83;;;;;;;;;;4963716;28;20432;-50
2022/02/06 10:49:20;;;;;;;8.60;1.17;;;;;;;;;;4967440;28;20027;-49
2022/02/06 10:51:51;;;;;;;6.93;1.40;;;;;;;;;;4967426;28;20462;-52
2022/02/06 10:54:27;;;;;;;12.65;2.45;;;;;;;;;;4967770;28;20402;-48
2022/02/06 10:57:10;;;;;;;12.52;1.17;;;;;;;;;;4965594;28;20498;-49
2022/02/06 10:59:37;;;;;;;13.45;1.48;;;;;;;;;;4965579;28;20026;-51
2022/02/06 11:03:09;;;;;;;12.02;1.70;;;;;;;;;;4963147;28;20031;-50
2022/02/06 11:05:47;;;;;;;13.02;1.27;;;;;;;;;;4956817;28;20086;-51
2022/02/06 11:08:24;;;;;;;13.40;1.40;;;;;;;;;;4961498;28;20039;-50
2022/02/06 11:10:56;;;;;;;10.40;1.25;;;;;;;;;;4963117;28;20739;-50
2022/02/06 11:13:21;;;;;;;13.90;2.20;;;;;;;;;;4959835;28;20450;-53
2022/02/06 11:15:47;;;;;;;14.32;1.27;;;;;;;;;;4965233;28;20077;-53
2022/02/06 11:18:20;;;;;;;4.55;1.23;;;;;;;;;;4964288;28;20382;-47
2022/02/06 11:21:04;;;;;;;10.38;0.93;;;;;;;;;;4965947;28;20126;-50
2022/02/06 11:23:39;;;;;;;18.20;1.77;;;;;;;;;;4964388;28;20080;-51
2022/02/06 11:26:10;;;;;;;17.63;2.03;;;;;;;;;;4967880;28;20084;-51
2022/02/06 11:28:36;;;;;;;11.95;1.55;;;;;;;;;;4965046;28;20073;-48
2022/02/06 11:31:02;;;;;;;15.02;2.28;;;;;;;;;;4964894;28;20419;-52
2022/02/06 11:33:28;;;;;;;11.45;1.67;;;;;;;;;;4965333;28;20117;-48
2022/02/06 11:35:58;;;;;;;10.57;1.48;;;;;;;;;;4964400;28;20030;-48
2022/02/06 11:44:33;;;;;;;12.80;1.45;;;;;;;;;;4979043;28;20499;-47
2022/02/06 11:46:58;;;;;;;8.85;1.38;;;;;;;;;;4967593;28;20133;-48
2022/02/06 11:49:25;;;;;;;9.48;1.38;;;;;;;;;;4966179;28;20461;-49
2022/02/06 11:51:57;;;;;;;15.50;1.73;;;;;;;;;;4963757;28;20030;-52
2022/02/06 11:54:24;;;;;;;14.63;1.45;;;;;;;;;;4963327;28;20023;-50
2022/02/06 11:56:49;;;;;;;13.15;1.60;;;;;;;;;;4966179;28;20619;-52
2022/02/06 11:59:15;;;;;;;17.10;1.27;;;;;;;;;;4960751;28;20066;-50
2022/02/06 12:01:42;;;;;;;16.80;2.03;;;;;;;;;;4965969;28;20422;-50
2022/02/06 12:04:25;;;;;;;15.13;1.08;;;;;;;;;;4965409;28;20446;-50
2022/02/06 12:06:53;;;;;;;17.15;1.92;;;;;;;;;;4967123;28;20035;-49
2022/02/06 12:09:24;;;;;;;16.10;1.27;;;;;;;;;;4957486;28;20112;-51
2022/02/06 12:12:05;;;;;;;10.60;1.77;;;;;;;;;;4957268;28;20041;-47
2022/02/06 12:14:41;;;;;;;8.18;1.00;;;;;;;;;;4960366;28;20030;-52
2022/02/06 12:17:15;;;;;;;17.65;1.52;;;;;;;;;;4963343;28;20050;-52
2022/02/06 12:19:41;;;;;;;8.35;1.45;;;;;;;;;;4962047;28;20067;-48
2022/02/06 12:22:29;;;;;;;13.45;1.63;;;;;;;;;;4961214;28;20499;-46
2022/02/06 12:25:34;;;;;;;6.50;1.20;;;;;;;;;;4965435;28;20023;-49
2022/02/06 12:28:20;;;;;;;2.45;0.85;;;;;;;;;;4960105;28;20026;-49
2022/02/06 12:30:47;;;;;;;3.97;0.98;;;;;;;;;;4960780;28;20443;-47
2022/02/06 12:33:19;;;;;;;8.80;1.30;;;;;;;;;;4961143;28;20065;-47
2022/02/06 12:38:31;;;;;;;10.45;1.15;;;;;;;;;;4970690;28;20061;-47
2022/02/06 12:40:57;;;;;;;15.00;1.42;;;;;;;;;;4964081;28;20047;-49
2022/02/06 12:43:28;;;;;;;11.98;1.88;;;;;;;;;;4961050;28;20415;-49
2022/02/06 12:45:55;;;;;;;11.53;1.63;;;;;;;;;;4962530;28;20473;-51
2022/02/06 12:48:21;;;;;;;12.50;1.65;;;;;;;;;;4964256;28;20038;-50
2022/02/06 12:50:47;;;;;;;11.07;1.67;;;;;;;;;;4961680;28;20031;-50
2022/02/06 12:53:17;;;;;;;11.35;1.27;;;;;;;;;;4963855;28;20479;-50
2022/02/06 12:55:45;;;;;;;12.75;1.55;;;;;;;;;;4966718;28;20026;-48
2022/02/06 12:58:12;;;;;;;10.73;0.95;;;;;;;;;;4964782;28;20027;-48
2022/02/06 13:00:47;;;;;;;8.80;1.38;;;;;;;;;;4968105;28;20109;-48
2022/02/06 13:03:20;;;;;;;6.30;0.95;;;;;;;;;;4966913;28;20122;-49
2022/02/06 13:06:06;;;;;;;6.57;1.08;;;;;;;;;;4962696;28;20108;-49
2022/02/06 13:08:36;;;;;;;22.08;1.95;;;;;;;;;;4961249;28;20145;-48
2022/02/06 13:11:06;;;;;;;9.40;1.58;;;;;;;;;;4960393;28;20026;-49
2022/02/06 13:13:54;;;;;;;16.70;2.13;;;;;;;;;;4961416;28;20041;-48
2022/02/06 13:33:04;;;;;;;6.20;1.55;;;;;;;;;;4997981;28;20034;-46
2022/02/06 13:38:07;;;;;;;17.15;1.65;;;;;;;;;;4961946;28;20094;-45
2022/02/06 13:40:34;;;;;;;8.02;1.35;;;;;;;;;;4961360;28;20062;-51
2022/02/06 13:43:07;;;;;;;10.05;1.10;;;;;;;;;;4957906;28;20334;-48
2022/02/06 13:45:35;;;;;;;15.38;1.90;;;;;;;;;;4956575;28;20185;-48
2022/02/06 13:48:03;;;;;;;13.48;2.22;;;;;;;;;;4957159;28;20519;-47
2022/02/06 13:50:30;;;;;;;13.00;1.63;;;;;;;;;;4964123;28;20467;-48
2022/02/06 13:53:20;;;;;;;16.83;1.65;;;;;;;;;;4960773;28;20503;-47
2022/02/06 13:56:00;;;;;;;13.40;1.67;;;;;;;;;;4955899;28;20136;-50
2022/02/06 13:58:27;;;;;;;10.25;2.80;;;;;;;;;;4960853;28;20050;-52
2022/02/06 14:01:07;;;;;;;7.20;2.00;;;;;;;;;;4965177;28;20038;-49
2022/02/06 14:03:49;;;;;;;10.45;1.33;;;;;;;;;;4978710;28;20030;-50
2022/02/06 14:06:18;;;;;;;15.52;1.98;;;;;;;;;;4965619;28;20092;-52
2022/02/06 14:09:08;;;;;;;13.30;1.48;;;;;;;;;;4958783;28;20517;-48
2022/02/06 14:11:35;;;;;;;18.95;1.60;;;;;;;;;;4958399;28;20026;-53
2022/02/06 14:14:20;;;;;;;14.77;1.88;;;;;;;;;;4956965;28;20034;-49
2022/02/06 14:16:48;;;;;;;9.90;1.30;;;;;;;;;;4962887;28;20099;-53
2022/02/06 14:19:15;;;;;;;12.88;1.83;;;;;;;;;;4958859;28;20084;-48
2022/02/06 14:21:47;;;;;;;13.00;1.92;;;;;;;;;;4958204;28;20030;-50
2022/02/06 14:24:13;;;;;;;13.70;2.23;;;;;;;;;;4963296;28;20062;-50
2022/02/06 14:27:00;;;;;;;12.90;1.67;;;;;;;;;;4962230;28;20470;-49
2022/02/06 14:29:26;;;;;;;11.52;1.75;;;;;;;;;;4963034;28;20030;-49
2022/02/06 14:31:51;;;;;;;10.75;1.60;;;;;;;;;;4963089;28;20042;-49
2022/02/06 14:34:18;;;;;;;10.13;1.42;;;;;;;;;;4964684;28;20031;-47
2022/02/06 14:37:15;;;;;;;6.95;1.25;;;;;;;;;;4957916;28;20027;-46
2022/02/06 14:40:10;;;;;;;18.08;2.40;;;;;;;;;;4958324;28;20042;-49
2022/02/06 14:42:38;;;;;;;12.68;1.27;;;;;;;;;;4957689;28;20413;-48
2022/02/06 14:45:11;;;;;;;11.60;1.50;;;;;;;;;;4959687;28;20097;-51
2022/02/06 14:47:36;;;;;;;8.18;1.58;;;;;;;;;;4963759;28;20034;-48
2022/02/06 14:50:11;;;;;;;15.45;1.88;;;;;;;;;;4963753;28;20038;-50
2022/02/06 14:52:36;;;;;;;15.50;1.85;;;;;;;;;;4969331;28;20026;-51
2022/02/06 14:55:02;;;;;;;16.33;2.60;;;;;;;;;;4960665;28;20065;-48
2022/02/06 14:57:28;;;;;;;10.02;2.03;;;;;;;;;;4962664;28;20031;-46
2022/02/06 14:59:53;;;;;;;10.40;2.22;;;;;;;;;;4963031;28;20041;-52
2022/02/06 15:02:19;;;;;;;17.45;2.83;;;;;;;;;;4987869;28;20039;-49
2022/02/06 15:04:44;;;;;;;17.02;2.60;;;;;;;;;;4960884;28;20253;-51
2022/02/06 15:07:09;;;;;;;6.75;2.10;;;;;;;;;;4967643;28;20034;-47
2022/02/06 15:09:35;;;;;;;15.80;2.47;;;;;;;;;;4964712;28;20058;-52
2022/02/06 15:12:01;;;;;;;15.20;2.65;;;;;;;;;;4963321;28;20317;-49
2022/02/06 15:14:26;;;;;;;15.55;2.25;;;;;;;;;;4964404;28;20106;-51
2022/02/06 15:16:57;;;;;;;12.23;2.10;;;;;;;;;;4995314;28;20053;-51
2022/02/06 15:19:29;;;;;;;10.35;1.98;;;;;;;;;;4961253;28;20137;-52
2022/02/06 15:21:56;;;;;;;10.90;2.25;;;;;;;;;;4994005;28;20039;-51
2022/02/06 15:24:22;;;;;;;10.05;1.83;;;;;;;;;;4961595;28;20059;-51
2022/02/06 15:26:48;;;;;;;9.05;2.13;;;;;;;;;;4962255;28;20085;-48
2022/02/06 15:29:13;;;;;;;17.88;2.58;;;;;;;;;;4958911;28;20035;-50
2022/02/06 15:31:39;;;;;;;19.40;1.95;;;;;;;;;;4965610;28;20042;-49
2022/02/06 15:34:04;;;;;;;11.75;2.55;;;;;;;;;;4960103;28;20553;-50
2022/02/06 15:36:32;;;;;;;11.30;2.42;;;;;;;;;;4963199;28;20109;-50
2022/02/06 15:38:57;;;;;;;18.63;2.13;;;;;;;;;;4962072;28;20062;-47
2022/02/06 15:41:24;;;;;;;10.95;2.10;;;;;;;;;;4964303;28;20541;-49
2022/02/06 15:43:50;;;;;;;13.55;1.45;;;;;;;;;;4965362;28;20418;-51
2022/02/06 15:46:15;;;;;;;17.10;2.30;;;;;;;;;;4964331;28;20034;-52
2022/02/06 15:48:41;;;;;;;11.95;2.33;;;;;;;;;;4960960;28;20049;-46
2022/02/06 15:51:06;;;;;;;10.05;1.85;;;;;;;;;;4964124;28;20404;-45
2022/02/06 15:53:32;;;;;;;26.13;2.80;;;;;;;;;;4963490;28;20038;-46
2022/02/06 15:55:57;;;;;;;16.23;2.63;;;;;;;;;;4966255;28;20034;-46
2022/02/06 15:58:23;;;;;;;9.82;3.28;;;;;;;;;;4960566;28;20035;-46
2022/02/06 16:00:48;;;;;;;9.50;2.33;;;;;;;;;;4963026;28;20039;-50
2022/02/06 16:03:14;;;;;;;9.38;1.98;;;;;;;;;;4961492;28;20177;-48
2022/02/06 16:05:39;;;;;;;20.77;3.10;;;;;;;;;;4962481;28;20086;-50
2022/02/06 16:08:05;;;;;;;18.95;2.53;;;;;;;;;;4959117;28;20041;-51
2022/02/06 16:10:31;;;;;;;20.13;3.25;;;;;;;;;;4954155;28;20067;-47
2022/02/06 16:12:56;;;;;;;9.25;2.03;;;;;;;;;;4962160;28;20035;-48
2022/02/06 16:15:22;;;;;;;13.73;2.83;;;;;;;;;;4961823;28;20035;-47
2022/02/06 16:17:47;;;;;;;22.65;4.47;;;;;;;;;;4961299;28;20113;-46
2022/02/06 16:20:14;;;;;;;15.07;2.85;;;;;;;;;;4964820;28;20039;-50
2022/02/06 16:22:41;;;;;;;19.75;2.83;;;;;;;;;;4963456;28;20429;-52
2022/02/06 16:25:08;;;;;;;24.45;3.90;;;;;;;;;;4964421;28;20157;-48
2022/02/06 16:27:34;;;;;;;18.95;2.65;;;;;;;;;;4964627;28;20081;-48
2022/02/06 16:30:00;;;;;;;25.15;3.28;;;;;;;;;;4959015;28;20050;-50
2022/02/06 16:32:27;;;;;;;22.67;3.92;;;;;;;;;;4962513;28;20437;-50
2022/02/06 16:34:53;;;;;;;27.67;2.88;;;;;;;;;;4966612;28;20062;-51
2022/02/06 16:37:19;;;;;;;13.00;3.92;;;;;;;;;;4959638;28;20470;-49
2022/02/06 16:39:45;;;;;;;14.27;3.10;;;;;;;;;;4962162;28;20614;-51
2022/02/06 16:42:17;;;;;;;9.35;2.28;;;;;;;;;;4959431;28;20418;-47
2022/02/06 16:44:43;;;;;;;31.45;3.75;;;;;;;;;;4957795;28;20042;-49
2022/02/06 16:47:10;;;;;;;21.90;3.88;;;;;;;;;;4956734;28;20370;-46
2022/02/06 16:49:37;;;;;;;25.73;3.10;;;;;;;;;;4963791;28;20592;-47
2022/02/06 16:52:04;;;;;;;18.60;3.17;;;;;;;;;;4965139;28;20346;-46
2022/02/06 16:54:29;;;;;;;24.10;3.33;;;;;;;;;;4962951;28;20034;-46
2022/02/06 16:56:55;;;;;;;23.13;2.72;;;;;;;;;;4965152;28;20034;-46
2022/02/06 16:59:21;;;;;;;23.00;3.33;;;;;;;;;;4965897;28;20026;-51
2022/02/06 17:01:47;;;;;;;20.48;3.53;;;;;;;;;;4966175;28;20086;-49
2022/02/06 17:04:13;;;;;;;22.25;3.75;;;;;;;;;;4965536;28;20074;-47
2022/02/06 17:06:38;;;;;;;16.23;3.63;;;;;;;;;;4993176;28;20027;-47
2022/02/06 17:09:09;;;;;;;19.92;3.13;;;;;;;;;;4965866;28;20050;-46